aviador You're here:

KTVY Decoded Metar

in
Report Time2017-07-23 06:55:00
UTC Time2017-07-23 06:53:38
Flight Rules vfr VFR
Wind140° at 04 kt
W.Decomp.*RWY 17: 3.5 kt HW 2 kt LCW
W.Rank140° ranks 12
Current wind is below 140° avg. (6.0)
Visibility9999 m
Phenomena:N/A
Clouds:N/A
Expected CloudBase > 6,000 ft AGL from Temp-Dew spread
CeilingNone
Temp22°C
Dew Point07°C (38% RH)
AAT19.9°C
QNH1019 hPa
Raw Report
KTVY 230655Z AUTO 14004KT 10SM CLR 22/07 A3009 RMK AO2=

Extra information for KTVY:More info

Social comments